createdAt,value
2023-04-21T00:00:51.575Z,96717.81
2023-04-21T00:03:53.138Z,96712.41
2023-04-21T00:06:55.288Z,96708.16
2023-04-21T00:09:56.812Z,96702.25
2023-04-21T00:12:58.355Z,96702.91
2023-04-21T00:15:59.888Z,96693.56
2023-04-21T00:19:02.383Z,96703.56
2023-04-21T00:22:04.583Z,96695.34
2023-04-21T00:25:06.860Z,96686.63
2023-04-21T00:28:08.378Z,96693.38
2023-04-21T00:31:12.415Z,96691.22
2023-04-21T00:34:13.983Z,96687.59
2023-04-21T00:37:15.427Z,96690.75
2023-04-21T00:40:17.023Z,96692.34
2023-04-21T00:43:18.557Z,96691.06
2023-04-21T00:46:20.014Z,96696.31
2023-04-21T00:49:24.727Z,96685.47
2023-04-21T00:52:27.059Z,96691.75
2023-04-21T00:55:31.220Z,96682.88
2023-04-21T00:58:33.869Z,96680.16
2023-04-21T01:01:36.436Z,96673.72
2023-04-21T01:04:40.097Z,96680.56
2023-04-21T01:07:41.929Z,96687.59
2023-04-21T01:10:43.432Z,96688.19
2023-04-21T01:13:44.928Z,96685.38
2023-04-21T01:16:46.742Z,96687.22
2023-04-21T01:19:49.041Z,96687.19
2023-04-21T01:22:51.644Z,96681.22
2023-04-21T01:25:53.525Z,96681.69
2023-04-21T01:28:56.806Z,96685.91
2023-04-21T01:31:58.470Z,96691.00
2023-04-21T01:35:00.426Z,96682.31
2023-04-21T01:38:02.097Z,96689.09
2023-04-21T01:41:03.704Z,96693.84
2023-04-21T01:44:05.380Z,96689.78
2023-04-21T01:47:07.069Z,96689.09
2023-04-21T01:50:08.841Z,96691.44
2023-04-21T01:53:10.437Z,96698.84
2023-04-21T01:56:14.848Z,96688.66
2023-04-21T01:59:16.516Z,96690.41
2023-04-21T02:02:18.212Z,96689.59
2023-04-21T02:05:19.800Z,96694.56
2023-04-21T02:08:21.312Z,96695.13
2023-04-21T02:11:25.023Z,96689.41
2023-04-21T02:14:26.479Z,96688.13
2023-04-21T02:17:28.118Z,96689.31
2023-04-21T02:20:32.224Z,96695.72
2023-04-21T02:23:33.679Z,96689.66
2023-04-21T02:26:35.363Z,96678.94
2023-04-21T02:29:36.945Z,96681.59
2023-04-21T02:32:38.604Z,96663.84
2023-04-21T02:35:40.177Z,96659.31
2023-04-21T02:38:41.629Z,96660.00
2023-04-21T02:41:44.997Z,96670.22
2023-04-21T02:44:46.521Z,96675.09
2023-04-21T02:47:48.108Z,96677.28
2023-04-21T02:50:50.770Z,96670.31
2023-04-21T02:53:52.774Z,96670.16
2023-04-21T02:56:54.288Z,96666.88
2023-04-21T02:59:55.811Z,96670.03
2023-04-21T03:02:57.566Z,96670.03
2023-04-21T03:06:03.589Z,96670.50
2023-04-21T03:09:05.551Z,96662.25
2023-04-21T03:12:07.578Z,96661.78
2023-04-21T03:15:11.469Z,96660.00
2023-04-21T03:18:13.208Z,96655.47
2023-04-21T03:21:14.797Z,96652.13
2023-04-21T03:24:16.384Z,96660.50
2023-04-21T03:27:17.952Z,96665.25
2023-04-21T03:30:19.882Z,96659.31
2023-04-21T03:33:21.424Z,96657.06
2023-04-21T03:36:23.013Z,96650.19
2023-04-21T03:39:24.848Z,96662.88
2023-04-21T03:42:27.697Z,96668.72
2023-04-21T03:45:31.486Z,96676.63
2023-04-21T03:48:34.310Z,96665.91
2023-04-21T03:51:35.878Z,96671.03
2023-04-21T03:54:37.479Z,96666.97
2023-04-21T03:57:40.975Z,96670.13
2023-04-21T04:00:42.738Z,96667.59
2023-04-21T04:03:44.401Z,96662.72
2023-04-21T04:06:45.943Z,96670.41
2023-04-21T04:09:47.527Z,96670.28
2023-04-21T04:12:49.179Z,96661.06
2023-04-21T04:15:50.697Z,96665.66
2023-04-21T04:18:52.187Z,96669.00
2023-04-21T04:21:53.629Z,96672.13
2023-04-21T04:24:55.658Z,96674.28
2023-04-21T04:27:57.397Z,96671.50
2023-04-21T04:31:00.620Z,96671.16
2023-04-21T04:34:02.194Z,96673.78
2023-04-21T04:37:04.277Z,96672.94
2023-04-21T04:40:06.865Z,96666.13
2023-04-21T04:43:10.544Z,96672.53
2023-04-21T04:46:12.979Z,96674.59
2023-04-21T04:49:15.410Z,96673.72
2023-04-21T04:52:16.906Z,96673.56
2023-04-21T04:55:18.812Z,96676.50
2023-04-21T04:58:20.526Z,96673.72
2023-04-21T05:01:22.427Z,96687.97
2023-04-21T05:04:24.356Z,96682.03
2023-04-21T05:07:26.440Z,96687.13
2023-04-21T05:10:27.944Z,96686.56
2023-04-21T05:13:29.481Z,96686.22
2023-04-21T05:16:30.945Z,96694.00
2023-04-21T05:19:35.974Z,96690.13
2023-04-21T05:22:38.409Z,96694.63
2023-04-21T05:25:40.304Z,96686.38
2023-04-21T05:28:41.794Z,96696.38
2023-04-21T05:31:43.283Z,96694.66
2023-04-21T05:34:44.854Z,96694.88
2023-04-21T05:37:46.412Z,96690.69
2023-04-21T05:40:56.814Z,96695.97
2023-04-21T05:43:58.906Z,96700.72
2023-04-21T05:47:00.473Z,96696.84
2023-04-21T05:50:01.904Z,96692.19
2023-04-21T05:53:03.389Z,96697.63
2023-04-21T05:56:05.946Z,96700.25
2023-04-21T05:59:07.467Z,96696.16
2023-04-21T06:02:09.055Z,96691.59
2023-04-21T06:05:10.863Z,96693.75
2023-04-21T06:08:12.624Z,96695.44
2023-04-21T06:11:14.171Z,96690.44
2023-04-21T06:14:15.717Z,96693.47
2023-04-21T06:17:17.988Z,96690.56
2023-04-21T06:20:22.744Z,96682.56
2023-04-21T06:23:24.280Z,96681.66
2023-04-21T06:26:25.901Z,96684.50
2023-04-21T06:29:27.411Z,96677.44
2023-04-21T06:32:28.875Z,96678.69
2023-04-21T06:35:30.914Z,96676.81
2023-04-21T06:38:32.547Z,96666.38
2023-04-21T06:41:34.023Z,96665.03
2023-04-21T06:44:35.553Z,96664.47
2023-04-21T06:47:37.759Z,96659.91
2023-04-21T06:50:39.265Z,96663.09
2023-04-21T06:53:40.833Z,96665.00
2023-04-21T06:56:42.993Z,96662.38
2023-04-21T06:59:45.050Z,96661.81
2023-04-21T07:02:46.552Z,96657.00
2023-04-21T07:05:48.112Z,96654.63
2023-04-21T07:08:49.594Z,96653.69
2023-04-21T07:11:51.165Z,96658.91
2023-04-21T07:14:52.675Z,96648.25
2023-04-21T07:17:54.289Z,96646.31
2023-04-21T07:20:55.736Z,96636.75
2023-04-21T07:23:58.477Z,96633.66
2023-04-21T07:26:59.942Z,96627.53
2023-04-21T07:30:01.427Z,96618.91
2023-04-21T07:33:03.045Z,96632.66
2023-04-21T07:36:04.924Z,96627.22
2023-04-21T07:39:06.616Z,96625.44
2023-04-21T07:42:08.354Z,96638.28
2023-04-21T07:45:10.309Z,96630.00
2023-04-21T07:48:11.881Z,96624.06
2023-04-21T07:51:13.429Z,96627.91
2023-04-21T07:54:14.901Z,96616.38
2023-04-21T07:57:16.416Z,96616.00
2023-04-21T08:00:18.192Z,96623.56
2023-04-21T08:03:21.358Z,96624.34
2023-04-21T08:06:24.418Z,96608.91
2023-04-21T08:09:26.459Z,96605.63
2023-04-21T08:12:27.986Z,96604.66
2023-04-21T08:15:29.490Z,96599.75
2023-04-21T08:18:31.361Z,96590.78
2023-04-21T08:21:33.434Z,96581.78
2023-04-21T08:24:34.989Z,96584.63
2023-04-21T08:27:40.097Z,96595.22
2023-04-21T08:30:42.394Z,96578.88
2023-04-21T08:33:58.058Z,96587.22
2023-04-21T08:37:03.206Z,96578.88
2023-04-21T08:40:06.111Z,96570.53
2023-04-21T08:43:08.782Z,96569.22
2023-04-21T08:46:12.754Z,96571.28
2023-04-21T08:49:19.630Z,96569.88
2023-04-21T08:52:21.310Z,96567.72
2023-04-21T08:55:31.226Z,96562.78
2023-04-21T08:58:32.922Z,96565.41
2023-04-21T09:02:17.935Z,96560.41
2023-04-21T09:05:27.182Z,96548.06
2023-04-21T09:08:30.395Z,96558.91
2023-04-21T09:11:34.581Z,96552.44
2023-04-21T09:14:36.037Z,96563.41
2023-04-21T09:17:38.617Z,96561.63
2023-04-21T09:20:40.272Z,96554.78
2023-04-21T09:23:48.107Z,96555.13
2023-04-21T09:26:53.340Z,96549.53
2023-04-21T09:29:55.705Z,96556.91
2023-04-21T09:32:58.703Z,96553.47
2023-04-21T09:36:00.923Z,96554.72
2023-04-21T09:39:28.947Z,96573.00
2023-04-21T09:42:30.254Z,96577.63
2023-04-21T09:45:39.750Z,96572.63
2023-04-21T09:48:44.334Z,96587.28
2023-04-21T09:55:01.674Z,96574.03
2023-04-21T09:58:07.393Z,96576.63
2023-04-21T10:01:09.820Z,96568.97
2023-04-21T10:04:12.021Z,96581.78
2023-04-21T10:07:13.976Z,96592.56
2023-04-21T10:10:35.913Z,96581.13
2023-04-21T10:13:37.989Z,96574.22
2023-04-21T10:16:39.682Z,96571.34
2023-04-21T10:19:52.931Z,96567.53
2023-04-21T10:22:58.511Z,96569.41
2023-04-21T10:26:22.207Z,96561.59
2023-04-21T10:29:32.876Z,96569.16
2023-04-21T10:32:43.144Z,96581.47
2023-04-21T10:36:01.391Z,96558.38
2023-04-21T10:39:04.242Z,96551.59
2023-04-21T10:42:20.916Z,96544.72
2023-04-21T10:45:25.812Z,96540.03
2023-04-21T10:48:27.335Z,96539.50
2023-04-21T10:51:32.796Z,96539.16
2023-04-21T10:54:42.024Z,96539.81
2023-04-21T10:57:45.419Z,96542.63
2023-04-21T11:00:47.507Z,96548.44
2023-04-21T11:03:49.215Z,96549.53
2023-04-21T11:07:32.936Z,96560.06
2023-04-21T11:10:48.704Z,96553.47
2023-04-21T11:13:53.054Z,96552.25
2023-04-21T11:16:54.562Z,96548.59
2023-04-21T11:19:56.552Z,96557.38
2023-04-21T11:22:58.005Z,96561.56
2023-04-21T11:25:59.737Z,96556.84
2023-04-21T11:29:02.405Z,96556.03
2023-04-21T11:32:06.505Z,96558.97
2023-04-21T11:35:08.255Z,96557.09
2023-04-21T11:38:10.601Z,96558.44
2023-04-21T11:41:12.197Z,96541.75
2023-04-21T11:44:30.048Z,96538.50
2023-04-21T11:47:31.609Z,96537.72
2023-04-21T11:50:33.529Z,96541.22
2023-04-21T11:53:35.035Z,96537.66
2023-04-21T11:56:41.618Z,96535.63
2023-04-21T11:59:45.875Z,96540.22
2023-04-21T12:02:55.712Z,96535.03
2023-04-21T12:05:58.366Z,96535.50
2023-04-21T12:09:02.189Z,96535.16
2023-04-21T12:12:05.388Z,96535.13
2023-04-21T12:15:08.249Z,96537.00
2023-04-21T12:18:14.319Z,96534.91
2023-04-21T12:21:16.556Z,96532.56
2023-04-21T12:24:18.055Z,96534.19
2023-04-21T12:27:20.566Z,96540.91
2023-04-21T12:30:22.077Z,96553.47
2023-04-21T12:33:23.729Z,96568.16
2023-04-21T12:36:27.749Z,96571.41
2023-04-21T12:39:30.868Z,96580.28
2023-04-21T12:42:33.841Z,96570.97
2023-04-21T12:45:36.746Z,96574.84
2023-04-21T12:48:38.324Z,96590.78
2023-04-21T12:51:39.858Z,96575.78
2023-04-21T12:54:41.828Z,96576.97
2023-04-21T12:57:43.750Z,96580.13
2023-04-21T13:00:45.337Z,96583.31
2023-04-21T13:03:47.100Z,96581.63
2023-04-21T13:06:48.639Z,96584.56
2023-04-21T13:09:50.686Z,96584.28
2023-04-21T13:12:52.204Z,96586.22
2023-04-21T13:15:54.216Z,96582.25
2023-04-21T13:18:55.795Z,96585.09
2023-04-21T13:21:57.292Z,96583.44
2023-04-21T13:24:58.974Z,96586.06
2023-04-21T13:28:00.956Z,96574.13
2023-04-21T13:31:02.600Z,96576.53
2023-04-21T13:34:04.136Z,96564.84
2023-04-21T13:37:06.267Z,96564.22
2023-04-21T13:40:10.068Z,96564.25
2023-04-21T13:43:12.075Z,96566.38
2023-04-21T13:46:14.600Z,96569.09
2023-04-21T13:49:16.342Z,96570.16
2023-04-21T13:52:17.833Z,96574.41
2023-04-21T13:55:20.793Z,96568.91
2023-04-21T13:58:22.591Z,96571.41
2023-04-21T14:01:24.159Z,96569.28
2023-04-21T14:04:26.993Z,96565.97
2023-04-21T14:07:28.740Z,96557.44
2023-04-21T14:10:31.066Z,96560.69
2023-04-21T14:13:37.827Z,96557.00
2023-04-21T14:16:43.753Z,96557.91
2023-04-21T14:19:45.398Z,96549.28
2023-04-21T14:22:46.876Z,96556.28
2023-04-21T14:25:48.414Z,96557.38
2023-04-21T14:28:50.924Z,96553.59
2023-04-21T14:31:53.819Z,96543.63
2023-04-21T14:34:58.375Z,96541.47
2023-04-21T14:37:59.942Z,96543.88
2023-04-21T14:41:01.838Z,96554.00
2023-04-21T14:44:03.921Z,96550.38
2023-04-21T14:47:09.770Z,96553.91
2023-04-21T14:50:12.090Z,96550.91
2023-04-21T14:53:13.746Z,96550.78
2023-04-21T14:56:15.921Z,96544.78
2023-04-21T14:59:17.416Z,96552.88
2023-04-21T15:02:20.580Z,96547.75
2023-04-21T15:05:22.501Z,96543.38
2023-04-21T15:08:24.141Z,96539.63
2023-04-21T15:11:25.676Z,96542.59
2023-04-21T15:14:27.255Z,96538.03
2023-04-21T15:17:28.814Z,96543.97
2023-04-21T15:20:41.078Z,96536.19
2023-04-21T15:23:45.704Z,96526.81
2023-04-21T15:26:47.284Z,96531.91
2023-04-21T15:29:49.318Z,96535.91
2023-04-21T15:32:50.869Z,96538.88
2023-04-21T15:35:52.445Z,96533.56
2023-04-21T15:38:53.916Z,96525.84
2023-04-21T15:41:55.935Z,96528.56
2023-04-21T15:44:57.516Z,96527.47
2023-04-21T15:47:59.081Z,96515.38
2023-04-21T15:51:02.015Z,96508.38
2023-04-21T15:54:04.476Z,96516.44
2023-04-21T15:57:06.180Z,96526.09
2023-04-21T16:00:10.185Z,96512.59
2023-04-21T16:03:12.348Z,96517.41
2023-04-21T16:06:13.986Z,96522.25
2023-04-21T16:09:17.035Z,96522.78
2023-04-21T16:12:18.838Z,96513.56
2023-04-21T16:15:24.409Z,96511.47
2023-04-21T16:18:26.581Z,96507.72
2023-04-21T16:21:28.137Z,96500.25
2023-04-21T16:24:29.738Z,96500.81
2023-04-21T16:27:31.222Z,96498.66
2023-04-21T16:30:35.059Z,96491.66
2023-04-21T16:33:36.567Z,96501.31
2023-04-21T16:36:38.077Z,96502.28
2023-04-21T16:39:39.584Z,96504.13
2023-04-21T16:42:41.235Z,96502.22
2023-04-21T16:45:43.056Z,96497.34
2023-04-21T16:48:44.553Z,96496.22
2023-04-21T16:51:46.163Z,96493.78
2023-04-21T16:54:47.710Z,96488.59
2023-04-21T16:57:49.306Z,96492.28
2023-04-21T17:00:51.457Z,96487.63
2023-04-21T17:08:14.541Z,96481.69
2023-04-21T17:11:16.102Z,96490.22
2023-04-21T17:14:17.535Z,96480.72
2023-04-21T17:17:19.089Z,96495.91
2023-04-21T17:20:20.582Z,96491.22
2023-04-21T17:23:22.176Z,96484.50
2023-04-21T17:26:23.938Z,96487.19
2023-04-21T17:29:27.984Z,96496.81
2023-04-21T17:32:31.266Z,96487.72
2023-04-21T17:35:34.943Z,96494.59
2023-04-21T17:38:36.577Z,96486.50
2023-04-21T17:41:38.080Z,96484.31
2023-04-21T17:44:41.227Z,96492.47
2023-04-21T17:47:43.192Z,96495.13
2023-04-21T17:50:44.932Z,96497.25
2023-04-21T17:53:46.762Z,96492.38
2023-04-21T17:56:48.351Z,96498.75
2023-04-21T17:59:49.976Z,96491.97
2023-04-21T18:02:51.497Z,96491.38
2023-04-21T18:05:53.754Z,96493.25
2023-04-21T18:08:55.946Z,96497.66
2023-04-21T18:11:58.315Z,96486.63
2023-04-21T18:15:00.962Z,96494.69
2023-04-21T18:18:02.541Z,96501.69
2023-04-21T18:21:04.286Z,96489.38
2023-04-21T18:24:06.120Z,96490.56
2023-04-21T18:27:07.925Z,96494.22
2023-04-21T18:30:09.966Z,96498.59
2023-04-21T18:33:11.942Z,96500.53
2023-04-21T18:36:13.548Z,96502.22
2023-04-21T18:39:15.061Z,96502.19
2023-04-21T18:42:16.636Z,96499.00
2023-04-21T18:45:18.512Z,96498.34
2023-04-21T18:48:20.057Z,96506.50
2023-04-21T18:51:21.595Z,96510.09
2023-04-21T18:54:23.114Z,96511.28
2023-04-21T18:57:25.764Z,96512.44
2023-04-21T19:00:27.262Z,96518.50
2023-04-21T19:03:29.080Z,96523.34
2023-04-21T19:06:30.758Z,96522.91
2023-04-21T19:09:32.209Z,96528.25
2023-04-21T19:12:34.237Z,96521.28
2023-04-21T19:15:35.855Z,96523.84
2023-04-21T19:18:37.670Z,96517.03
2023-04-21T19:21:39.362Z,96517.03
2023-04-21T19:24:40.924Z,96525.03
2023-04-21T19:27:42.808Z,96520.16
2023-04-21T19:30:44.277Z,96517.03
2023-04-21T19:33:46.080Z,96524.00
2023-04-21T19:36:49.296Z,96522.03
2023-04-21T19:39:50.874Z,96524.81
2023-04-21T19:42:52.852Z,96525.78
2023-04-21T19:45:54.493Z,96523.56
2023-04-21T19:48:56.222Z,96524.50
2023-04-21T19:51:57.826Z,96524.28
2023-04-21T19:54:59.338Z,96526.31
2023-04-21T19:58:00.829Z,96521.25
2023-04-21T20:01:02.354Z,96524.72
2023-04-21T20:04:04.429Z,96525.53
2023-04-21T20:07:06.415Z,96531.56
2023-04-21T20:10:08.923Z,96526.00
2023-04-21T20:13:13.791Z,96523.19
2023-04-21T20:16:17.386Z,96534.34
2023-04-21T20:19:22.747Z,96537.25
2023-04-21T20:22:25.813Z,96537.66
2023-04-21T20:25:28.895Z,96530.75
2023-04-21T20:28:30.559Z,96532.34
2023-04-21T20:31:33.163Z,96522.97
2023-04-21T20:34:36.231Z,96523.19
2023-04-21T20:37:38.122Z,96526.63
2023-04-21T20:40:39.760Z,96521.03
2023-04-21T20:43:41.322Z,96519.75
2023-04-21T20:46:43.133Z,96521.69
2023-04-21T20:49:44.838Z,96527.53
2023-04-21T20:52:46.363Z,96525.56
2023-04-21T20:55:48.563Z,96528.22
2023-04-21T20:58:50.648Z,96536.00
2023-04-21T21:01:52.120Z,96533.09
2023-04-21T21:04:53.601Z,96538.31
2023-04-21T21:07:56.936Z,96535.72
2023-04-21T21:10:58.423Z,96533.88
2023-04-21T21:13:59.974Z,96533.88
2023-04-21T21:17:02.859Z,96529.03
2023-04-21T21:20:05.075Z,96533.72
2023-04-21T21:23:07.512Z,96533.88
2023-04-21T21:26:09.202Z,96534.44
2023-04-21T21:29:10.800Z,96530.84
2023-04-21T21:32:12.455Z,96536.03
2023-04-21T21:35:13.973Z,96539.84
2023-04-21T21:38:15.866Z,96535.56
2023-04-21T21:41:19.711Z,96535.88
2023-04-21T21:44:21.432Z,96535.72
2023-04-21T21:47:23.063Z,96534.03
2023-04-21T21:50:24.673Z,96525.81
2023-04-21T21:53:26.153Z,96517.69
2023-04-21T21:56:27.739Z,96533.22
2023-04-21T21:59:29.325Z,96525.06
2023-04-21T22:02:31.140Z,96529.59
2023-04-21T22:05:32.838Z,96522.75
2023-04-21T22:08:34.430Z,96526.66
2023-04-21T22:11:37.059Z,96522.75
2023-04-21T22:14:38.619Z,96530.03
2023-04-21T22:17:40.154Z,96519.28
2023-04-21T22:20:41.730Z,96524.81
2023-04-21T22:23:43.930Z,96526.91
2023-04-21T22:26:45.512Z,96526.91
2023-04-21T22:29:46.989Z,96526.31
2023-04-21T22:32:48.662Z,96535.19
2023-04-21T22:35:50.831Z,96532.38
2023-04-21T22:38:52.324Z,96527.41
2023-04-21T22:41:53.850Z,96523.88
2023-04-21T22:44:55.530Z,96528.50
2023-04-21T22:47:57.098Z,96527.03
2023-04-21T22:50:59.597Z,96522.31
2023-04-21T22:54:01.368Z,96526.72
2023-04-21T22:57:02.890Z,96527.88
2023-04-21T23:00:06.413Z,96526.28
2023-04-21T23:03:08.194Z,96527.16
2023-04-21T23:06:09.980Z,96517.19
2023-04-21T23:09:11.610Z,96520.88
2023-04-21T23:12:13.147Z,96516.25
2023-04-21T23:15:14.637Z,96515.41
2023-04-21T23:18:16.132Z,96511.81
2023-04-21T23:21:17.650Z,96511.91
2023-04-21T23:24:19.137Z,96506.81
2023-04-21T23:27:20.822Z,96510.84
2023-04-21T23:30:22.322Z,96510.72
2023-04-21T23:33:23.980Z,96506.22
2023-04-21T23:36:27.037Z,96517.09
2023-04-21T23:39:28.539Z,96511.69
2023-04-21T23:42:30.092Z,96511.56
2023-04-21T23:45:31.570Z,96508.44
2023-04-21T23:48:34.210Z,96514.06
2023-04-21T23:51:36.757Z,96503.84
2023-04-21T23:54:38.175Z,96502.81
2023-04-21T23:57:39.807Z,96504.06
